Time;durP1;ratioP1;P1;durP2;ratioP2;P2;SDS_P1;SDS_P2;PMS_P1;PMS_P2;Temp;Humidity;BMP_temperature;BMP_pressure;BME280_temperature;BME280_humidity;BME280_pressure;Samples;Min_cycle;Max_cycle;Signal;HPM_P1;HPM_P2
2022/02/26 00:01:41;;;;;;;19.95;3.90;;;;;;;-145.14;100.00;70583.66;4984565;28;20190;-77
2022/02/26 00:04:08;;;;;;;17.73;4.23;;;;;;;-145.14;100.00;70583.66;4985902;28;20505;-76
2022/02/26 00:06:33;;;;;;;20.57;4.07;;;;;;;-145.14;100.00;70583.66;4985199;28;20189;-76
2022/02/26 00:08:59;;;;;;;18.80;5.00;;;;;;;-145.14;100.00;70583.66;4989709;28;20467;-75
2022/02/26 00:11:24;;;;;;;24.93;3.97;;;;;;;-145.14;100.00;70583.66;4987158;28;20352;-75
2022/02/26 00:13:50;;;;;;;23.65;4.80;;;;;;;-145.14;100.00;70583.66;4982693;28;20201;-76
2022/02/26 00:16:16;;;;;;;19.00;3.53;;;;;;;-145.14;100.00;70583.66;4990647;28;20807;-75
2022/02/26 00:18:41;;;;;;;18.50;3.93;;;;;;;-145.14;100.00;70583.66;4988743;28;20673;-75
2022/02/26 00:21:07;;;;;;;19.00;3.50;;;;;;;-145.14;100.00;70583.66;4990089;28;20272;-76
2022/02/26 00:23:32;;;;;;;21.13;3.60;;;;;;;-145.14;100.00;70583.66;4991927;28;20189;-75
2022/02/26 00:25:58;;;;;;;17.90;3.97;;;;;;;-145.14;100.00;70583.66;4989973;28;20201;-75
2022/02/26 00:28:23;;;;;;;16.73;3.67;;;;;;;-145.14;100.00;70583.66;4990879;28;20205;-76
2022/02/26 00:30:48;;;;;;;16.70;3.30;;;;;;;-145.14;100.00;70583.66;4992202;28;20240;-76
2022/02/26 00:33:14;;;;;;;20.90;3.63;;;;;;;-145.14;100.00;70583.66;4985339;28;20185;-75
2022/02/26 00:35:41;;;;;;;22.10;3.47;;;;;;;-145.14;100.00;70583.66;4988550;28;20189;-76
2022/02/26 00:38:07;;;;;;;19.07;3.93;;;;;;;-145.14;100.00;70583.66;4986845;28;20672;-76
2022/02/26 00:40:32;;;;;;;33.10;4.20;;;;;;;-145.14;100.00;70583.66;4989088;28;20446;-76
2022/02/26 00:42:58;;;;;;;16.47;3.17;;;;;;;-145.14;100.00;70583.66;4989621;28;20185;-76
2022/02/26 00:45:24;;;;;;;28.43;4.13;;;;;;;-145.14;100.00;70583.66;4991853;28;20193;-75
2022/02/26 00:47:50;;;;;;;21.60;4.67;;;;;;;-145.14;100.00;70583.66;4991990;28;20665;-75
2022/02/26 00:50:16;;;;;;;19.97;3.87;;;;;;;-145.14;100.00;70583.66;4984838;28;20465;-76
2022/02/26 00:52:42;;;;;;;23.90;4.57;;;;;;;-145.14;100.00;70583.66;4992946;28;20448;-75
2022/02/26 00:55:08;;;;;;;25.63;4.03;;;;;;;-145.14;100.00;70583.66;4989943;28;20453;-75
2022/02/26 00:57:34;;;;;;;20.00;4.53;;;;;;;-145.14;100.00;70583.66;4992443;28;20228;-74
2022/02/26 00:59:59;;;;;;;23.90;5.43;;;;;;;-145.14;100.00;70583.66;4988461;28;21228;-75
2022/02/26 01:02:25;;;;;;;22.43;4.07;;;;;;;-145.14;100.00;70583.66;4986573;28;20185;-75
2022/02/26 01:04:51;;;;;;;15.73;3.77;;;;;;;-145.14;100.00;70583.66;4991515;28;20593;-77
2022/02/26 01:07:17;;;;;;;18.13;4.00;;;;;;;-145.14;100.00;70583.66;4991139;28;20189;-77
2022/02/26 01:09:42;;;;;;;20.30;3.77;;;;;;;-145.14;100.00;70583.66;4988661;28;20893;-77
2022/02/26 01:12:09;;;;;;;18.30;4.20;;;;;;;-145.14;100.00;70583.66;4987821;28;20214;-77
2022/02/26 01:14:35;;;;;;;26.90;4.93;;;;;;;-145.14;100.00;70583.66;4990579;28;20193;-76
2022/02/26 01:17:03;;;;;;;18.53;3.43;;;;;;;-145.14;100.00;70583.66;4986763;28;20449;-76
2022/02/26 01:19:29;;;;;;;11.20;3.15;;;;;;;-145.14;100.00;70583.66;4986685;28;20541;-76
2022/02/26 01:21:54;;;;;;;23.13;4.10;;;;;;;-145.14;100.00;70583.66;4993081;28;20539;-76
2022/02/26 01:24:20;;;;;;;15.97;3.43;;;;;;;-145.14;100.00;70583.66;4993339;28;20198;-76
2022/02/26 01:26:46;;;;;;;18.03;4.10;;;;;;;-145.14;100.00;70583.66;4991544;28;20185;-76
2022/02/26 01:29:12;;;;;;;15.87;2.97;;;;;;;-145.14;100.00;70583.66;4991460;28;20292;-76
2022/02/26 01:31:37;;;;;;;14.50;4.10;;;;;;;-145.14;100.00;70583.66;4993286;28;20205;-76
2022/02/26 01:34:05;;;;;;;18.90;3.65;;;;;;;-145.14;100.00;70583.66;4992307;28;20454;-75
2022/02/26 01:36:30;;;;;;;20.20;3.10;;;;;;;-145.14;100.00;70583.66;4991747;28;20642;-75
2022/02/26 01:38:56;;;;;;;14.73;3.00;;;;;;;-145.14;100.00;70583.66;4990827;28;20475;-75
2022/02/26 01:41:22;;;;;;;17.40;3.30;;;;;;;-145.14;100.00;70583.66;4991662;28;20188;-76
2022/02/26 01:43:47;;;;;;;16.20;4.00;;;;;;;-145.14;100.00;70583.66;4988281;28;20189;-75
2022/02/26 01:46:13;;;;;;;16.73;2.93;;;;;;;-145.14;100.00;70583.66;4991854;28;20447;-76
2022/02/26 01:48:40;;;;;;;20.10;3.33;;;;;;;-145.14;100.00;70583.66;4992529;28;20205;-75
2022/02/26 01:51:08;;;;;;;20.90;3.50;;;;;;;-145.14;100.00;70583.66;4991508;28;20481;-76
2022/02/26 01:53:35;;;;;;;14.13;3.07;;;;;;;-145.14;100.00;70583.66;4993751;28;20447;-75
2022/02/26 01:56:03;;;;;;;19.70;3.80;;;;;;;-145.14;100.00;70583.66;4991014;28;20451;-75
2022/02/26 01:58:28;;;;;;;13.53;3.03;;;;;;;-145.14;100.00;70583.66;4977616;28;21058;-75
2022/02/26 02:00:54;;;;;;;11.43;3.27;;;;;;;-145.14;100.00;70583.66;4989962;28;20487;-76
2022/02/26 02:03:19;;;;;;;18.73;4.10;;;;;;;-145.14;100.00;70583.66;4992433;28;20656;-75
2022/02/26 02:05:45;;;;;;;17.00;3.00;;;;;;;-145.14;100.00;70583.66;4984421;28;20349;-75
2022/02/26 02:08:11;;;;;;;11.87;2.43;;;;;;;-145.14;100.00;70583.66;4987908;28;20188;-75
2022/02/26 02:10:40;;;;;;;22.37;3.50;;;;;;;-145.14;100.00;70583.66;4987994;28;20622;-75
2022/02/26 02:13:05;;;;;;;18.03;2.30;;;;;;;-145.14;100.00;70583.66;4992161;28;20429;-76
2022/02/26 02:15:39;;;;;;;14.70;2.87;;;;;;;-145.14;100.00;70583.66;4987824;28;20448;-76
2022/02/26 02:18:07;;;;;;;14.07;3.60;;;;;;;-145.14;100.00;70583.66;4989461;28;20320;-75
2022/02/26 02:20:33;;;;;;;18.43;3.37;;;;;;;-145.14;100.00;70583.66;4988827;28;20447;-75
2022/02/26 02:22:59;;;;;;;18.47;2.57;;;;;;;-145.14;100.00;70583.66;4988189;28;20964;-75
2022/02/26 02:25:28;;;;;;;13.20;4.00;;;;;;;-145.14;100.00;70583.66;4988387;28;20445;-75
2022/02/26 02:27:55;;;;;;;13.10;2.83;;;;;;;-145.14;100.00;70583.66;4993227;28;20436;-74
2022/02/26 02:30:21;;;;;;;21.93;3.30;;;;;;;-145.14;100.00;70583.66;4990035;28;21006;-76
2022/02/26 02:32:47;;;;;;;20.93;3.40;;;;;;;-145.14;100.00;70583.66;4989160;28;20441;-75
2022/02/26 02:35:29;;;;;;;18.03;3.20;;;;;;;-145.14;100.00;70583.66;4990716;28;20455;-75
2022/02/26 02:37:56;;;;;;;15.60;3.40;;;;;;;-145.14;100.00;70583.66;4992505;28;20248;-78
2022/02/26 02:40:22;;;;;;;22.65;3.35;;;;;;;-145.14;100.00;70583.66;4995150;23;20502;-70
2022/02/26 02:42:48;;;;;;;17.27;3.30;;;;;;;-145.14;100.00;70583.66;4989662;28;20922;-70
2022/02/26 02:45:14;;;;;;;19.07;3.97;;;;;;;-145.14;100.00;70583.66;4991320;28;20459;-70
2022/02/26 02:47:39;;;;;;;15.20;2.67;;;;;;;-145.14;100.00;70583.66;4987923;28;20917;-70
2022/02/26 02:50:05;;;;;;;17.53;3.07;;;;;;;-145.14;100.00;70583.66;4978408;28;20300;-70
2022/02/26 02:52:31;;;;;;;14.20;4.10;;;;;;;-145.14;100.00;70583.66;4973371;28;20718;-70
2022/02/26 02:54:56;;;;;;;17.47;2.83;;;;;;;-145.14;100.00;70583.66;4974354;28;20521;-70
2022/02/26 02:57:21;;;;;;;11.60;2.47;;;;;;;-145.14;100.00;70583.66;4976796;28;20189;-70
2022/02/26 02:59:47;;;;;;;18.70;3.03;;;;;;;-145.14;100.00;70583.66;4975864;28;20667;-70
2022/02/26 03:02:12;;;;;;;20.77;3.43;;;;;;;-145.14;100.00;70583.66;4977382;28;20174;-70
2022/02/26 03:04:38;;;;;;;17.80;2.97;;;;;;;-145.14;100.00;70583.66;4975192;28;20220;-70
2022/02/26 03:07:03;;;;;;;13.70;2.30;;;;;;;-145.14;100.00;70583.66;4973777;28;20647;-70
2022/02/26 03:09:29;;;;;;;14.73;3.17;;;;;;;-145.14;100.00;70583.66;4974931;28;20221;-70
2022/02/26 03:11:54;;;;;;;8.70;2.35;;;;;;;-145.14;100.00;70583.66;4969158;28;20209;-70
2022/02/26 03:14:19;;;;;;;12.73;3.00;;;;;;;-145.14;100.00;70583.66;4975509;28;20190;-70
2022/02/26 03:16:45;;;;;;;9.70;2.23;;;;;;;-145.14;100.00;70583.66;4972454;28;20189;-70
2022/02/26 03:19:10;;;;;;;14.50;2.20;;;;;;;-145.14;100.00;70583.66;4974430;28;20603;-70
2022/02/26 03:21:36;;;;;;;21.60;4.03;;;;;;;-145.14;100.00;70583.66;4976352;28;20181;-70
2022/02/26 03:24:02;;;;;;;18.10;2.70;;;;;;;-145.14;100.00;70583.66;4975619;28;20197;-70
2022/02/26 03:26:27;;;;;;;10.20;2.47;;;;;;;-145.14;100.00;70583.66;4976069;28;20233;-70
2022/02/26 03:28:52;;;;;;;15.87;3.17;;;;;;;-145.14;100.00;70583.66;4975619;28;20663;-70
2022/02/26 03:31:18;;;;;;;13.70;2.47;;;;;;;-145.14;100.00;70583.66;4973028;28;20590;-70
2022/02/26 03:33:44;;;;;;;13.00;3.00;;;;;;;-145.14;100.00;70583.66;4973439;28;20643;-70
2022/02/26 03:36:09;;;;;;;9.07;2.50;;;;;;;-145.14;100.00;70583.66;4970916;28;20184;-70
2022/02/26 03:38:35;;;;;;;12.27;2.90;;;;;;;-145.14;100.00;70583.66;4969620;28;20451;-70
2022/02/26 03:41:01;;;;;;;18.53;3.00;;;;;;;-145.14;100.00;70583.66;4973597;28;20622;-70
2022/02/26 03:43:26;;;;;;;16.33;2.53;;;;;;;-145.14;100.00;70583.66;4985697;28;20449;-70
2022/02/26 03:45:51;;;;;;;17.53;3.00;;;;;;;-145.14;100.00;70583.66;4972172;28;20323;-70
2022/02/26 03:48:17;;;;;;;12.70;2.43;;;;;;;-145.14;100.00;70583.66;4969243;28;20276;-70
2022/02/26 03:50:43;;;;;;;14.60;2.73;;;;;;;-145.14;100.00;70583.66;4972333;28;20725;-69
2022/02/26 03:53:09;;;;;;;18.20;3.17;;;;;;;-145.14;100.00;70583.66;4973497;28;20233;-70
2022/02/26 03:55:35;;;;;;;13.60;2.43;;;;;;;-145.14;100.00;70583.66;4970067;28;20921;-70
2022/02/26 03:58:00;;;;;;;10.37;2.43;;;;;;;-145.14;100.00;70583.66;4972568;28;23204;-70
2022/02/26 04:00:26;;;;;;;16.97;3.20;;;;;;;-145.14;100.00;70583.66;4969768;28;20761;-70
2022/02/26 04:02:52;;;;;;;13.63;2.20;;;;;;;-145.14;100.00;70583.66;4971972;28;20185;-70
2022/02/26 04:05:17;;;;;;;12.83;3.17;;;;;;;-145.14;100.00;70583.66;4971355;28;20228;-70
2022/02/26 04:07:43;;;;;;;13.93;2.13;;;;;;;-145.14;100.00;70583.66;4972132;28;20252;-70
2022/02/26 04:10:10;;;;;;;11.23;3.07;;;;;;;-145.14;100.00;70583.66;4969982;28;20197;-70
2022/02/26 04:12:35;;;;;;;17.47;2.97;;;;;;;-145.14;100.00;70583.66;4972602;28;20457;-70
2022/02/26 04:15:01;;;;;;;18.37;3.10;;;;;;;-145.14;100.00;70583.66;4965895;28;21377;-70
2022/02/26 04:17:26;;;;;;;20.75;3.00;;;;;;;-145.14;100.00;70583.66;4973889;28;20628;-70
2022/02/26 04:19:52;;;;;;;7.90;2.40;;;;;;;-145.14;100.00;70583.66;4968841;28;20248;-71
2022/02/26 04:22:17;;;;;;;10.33;2.57;;;;;;;-145.14;100.00;70583.66;4969162;28;20178;-71
2022/02/26 04:24:43;;;;;;;19.07;3.67;;;;;;;-145.14;100.00;70583.66;4971607;28;20248;-70
2022/02/26 04:27:08;;;;;;;18.53;3.57;;;;;;;-145.14;100.00;70583.66;4972886;28;20200;-70
2022/02/26 04:29:34;;;;;;;19.03;3.33;;;;;;;-145.14;100.00;70583.66;4971155;28;20492;-71
2022/02/26 04:31:59;;;;;;;12.00;2.70;;;;;;;-145.14;100.00;70583.66;4973271;28;20642;-68
2022/02/26 04:34:25;;;;;;;15.97;3.20;;;;;;;-145.14;100.00;70583.66;4985507;28;20186;-69
2022/02/26 04:36:50;;;;;;;12.63;2.50;;;;;;;-145.14;100.00;70583.66;4975999;28;20217;-70
2022/02/26 04:39:16;;;;;;;14.87;2.57;;;;;;;-145.14;100.00;70583.66;4969784;28;20936;-69
2022/02/26 04:41:41;;;;;;;19.70;2.87;;;;;;;-145.14;100.00;70583.66;4973686;28;20276;-69
2022/02/26 04:44:07;;;;;;;15.50;2.67;;;;;;;-145.14;100.00;70583.66;4972812;28;20229;-69
2022/02/26 04:46:32;;;;;;;18.13;3.50;;;;;;;-145.14;100.00;70583.66;4973964;28;20182;-69
2022/02/26 04:48:58;;;;;;;14.10;3.37;;;;;;;-145.14;100.00;70583.66;4973188;28;20424;-70
2022/02/26 04:51:23;;;;;;;12.90;2.50;;;;;;;-145.14;100.00;70583.66;4977046;28;20213;-69
2022/02/26 04:53:48;;;;;;;13.87;2.80;;;;;;;-145.14;100.00;70583.66;4980014;28;20210;-69
2022/02/26 04:56:14;;;;;;;10.17;2.60;;;;;;;-145.14;100.00;70583.66;4974296;28;20741;-70
2022/02/26 04:58:40;;;;;;;13.30;2.63;;;;;;;-145.14;100.00;70583.66;4979518;28;20708;-70
2022/02/26 05:01:06;;;;;;;11.60;2.45;;;;;;;-145.14;100.00;70583.66;4972670;28;20247;-70
2022/02/26 05:03:32;;;;;;;11.00;2.53;;;;;;;-145.14;100.00;70583.66;4975966;28;20449;-70
2022/02/26 05:05:57;;;;;;;15.25;3.30;;;;;;;-145.14;100.00;70583.66;4975933;28;20782;-69
2022/02/26 05:08:23;;;;;;;16.67;3.20;;;;;;;-145.14;100.00;70583.66;4971767;28;20272;-69
2022/02/26 05:10:48;;;;;;;22.57;3.70;;;;;;;-145.14;100.00;70583.66;4976285;28;20309;-70
2022/02/26 05:13:13;;;;;;;10.93;2.60;;;;;;;-145.14;100.00;70583.66;4973912;28;20190;-70
2022/02/26 05:15:39;;;;;;;10.87;2.73;;;;;;;-145.14;100.00;70583.66;4975775;28;20767;-69
2022/02/26 05:18:05;;;;;;;12.47;2.57;;;;;;;-145.14;100.00;70583.66;4976576;28;20190;-69
2022/02/26 05:20:31;;;;;;;20.77;2.80;;;;;;;-145.14;100.00;70583.66;4975425;28;20216;-70
2022/02/26 05:22:57;;;;;;;12.20;2.70;;;;;;;-145.14;100.00;70583.66;4974531;28;20444;-70
2022/02/26 05:25:23;;;;;;;15.20;2.87;;;;;;;-145.14;100.00;70583.66;4975616;28;20199;-70
2022/02/26 05:27:48;;;;;;;19.63;3.10;;;;;;;-145.14;100.00;70583.66;4977637;28;20437;-69
2022/02/26 05:30:15;;;;;;;10.53;2.37;;;;;;;-145.14;100.00;70583.66;4976756;28;20272;-69
2022/02/26 05:32:41;;;;;;;16.03;2.80;;;;;;;-145.14;100.00;70583.66;4979758;28;20214;-69
2022/02/26 05:35:08;;;;;;;19.57;3.20;;;;;;;-145.14;100.00;70583.66;4983120;28;20725;-69
2022/02/26 05:37:34;;;;;;;14.73;2.80;;;;;;;-145.14;100.00;70583.66;4979740;28;20476;-69
2022/02/26 05:39:59;;;;;;;22.00;3.80;;;;;;;-145.14;100.00;70583.66;4977243;28;20468;-69
2022/02/26 05:42:25;;;;;;;11.15;2.75;;;;;;;-145.14;100.00;70583.66;4979776;28;20185;-69
2022/02/26 05:44:50;;;;;;;11.75;3.15;;;;;;;-145.14;100.00;70583.66;4979467;28;20718;-69
2022/02/26 05:47:16;;;;;;;17.90;3.15;;;;;;;-145.14;100.00;70583.66;4979231;28;20189;-69
2022/02/26 05:49:41;;;;;;;13.27;2.67;;;;;;;-145.14;100.00;70583.66;4983324;28;20687;-69
2022/02/26 05:52:07;;;;;;;14.47;3.50;;;;;;;-145.14;100.00;70583.66;4980931;28;20809;-69
2022/02/26 05:54:33;;;;;;;17.17;3.53;;;;;;;-145.14;100.00;70583.66;4978524;28;20194;-69
2022/02/26 05:56:58;;;;;;;10.53;2.97;;;;;;;-145.14;100.00;70583.66;4990018;28;20452;-69
2022/02/26 05:59:24;;;;;;;12.83;2.80;;;;;;;-145.14;100.00;70583.66;4979223;28;20771;-69
2022/02/26 06:01:50;;;;;;;8.00;2.50;;;;;;;-145.14;100.00;70583.66;4980267;28;20188;-69
2022/02/26 06:04:15;;;;;;;14.50;2.33;;;;;;;-145.14;100.00;70583.66;4979358;28;20210;-69
2022/02/26 06:06:40;;;;;;;18.23;3.57;;;;;;;-145.14;100.00;70583.66;4978854;28;20672;-70
2022/02/26 06:09:06;;;;;;;15.60;3.20;;;;;;;-145.14;100.00;70583.66;4980662;28;20231;-69
2022/02/26 06:11:31;;;;;;;13.90;2.60;;;;;;;-145.14;100.00;70583.66;4978298;28;20691;-69
2022/02/26 06:13:57;;;;;;;12.10;2.20;;;;;;;-145.14;100.00;70583.66;4978091;28;20185;-69
2022/02/26 06:16:22;;;;;;;15.17;3.40;;;;;;;-145.14;100.00;70583.66;4975358;28;20204;-69
2022/02/26 06:18:47;;;;;;;20.20;2.47;;;;;;;-145.14;100.00;70583.66;4981289;28;20221;-69
2022/02/26 06:21:13;;;;;;;11.07;2.40;;;;;;;-145.14;100.00;70583.66;4976269;28;20185;-70
2022/02/26 06:23:39;;;;;;;21.20;3.70;;;;;;;-145.14;100.00;70583.66;4977683;28;20583;-69
2022/02/26 06:26:09;;;;;;;11.63;3.03;;;;;;;-145.14;100.00;70583.66;4977494;28;20212;-69
2022/02/26 06:28:34;;;;;;;15.53;4.27;;;;;;;-145.14;100.00;70583.66;4977247;28;20221;-69
2022/02/26 06:31:00;;;;;;;14.73;2.70;;;;;;;-145.14;100.00;70583.66;4977863;28;20560;-69
2022/02/26 06:33:25;;;;;;;15.40;3.00;;;;;;;-145.14;100.00;70583.66;4980601;28;20737;-69
2022/02/26 06:35:52;;;;;;;14.67;4.20;;;;;;;-145.14;100.00;70583.66;4975234;28;20189;-69
2022/02/26 06:38:17;;;;;;;16.07;3.60;;;;;;;-145.14;100.00;70583.66;4978292;28;20335;-70
2022/02/26 06:40:46;;;;;;;17.77;3.93;;;;;;;-145.14;100.00;70583.66;4976990;28;21156;-69
2022/02/26 06:43:12;;;;;;;8.17;3.30;;;;;;;-145.14;100.00;70583.66;4975118;28;20213;-70
2022/02/26 06:45:38;;;;;;;14.75;3.65;;;;;;;-145.14;100.00;70583.66;4972402;28;20536;-69
2022/02/26 06:48:03;;;;;;;13.00;3.10;;;;;;;-145.14;100.00;70583.66;4977188;28;20225;-69
2022/02/26 06:50:30;;;;;;;12.50;3.00;;;;;;;-145.14;100.00;70583.66;4975269;28;20603;-70
2022/02/26 06:52:56;;;;;;;12.07;2.83;;;;;;;-145.14;100.00;70583.66;4971517;28;20273;-70
2022/02/26 06:55:21;;;;;;;18.80;4.30;;;;;;;-145.14;100.00;70583.66;4970616;28;20947;-70
2022/02/26 06:57:47;;;;;;;11.90;2.97;;;;;;;-145.14;100.00;70583.66;4976974;28;20187;-70
2022/02/26 07:00:13;;;;;;;9.73;2.30;;;;;;;-145.14;100.00;70583.66;4976245;28;20767;-70
2022/02/26 07:02:38;;;;;;;11.15;2.80;;;;;;;-145.14;100.00;70583.66;4978007;28;20189;-70
2022/02/26 07:05:05;;;;;;;24.25;3.65;;;;;;;-145.14;100.00;70583.66;4977213;28;20453;-70
2022/02/26 07:07:30;;;;;;;9.40;2.90;;;;;;;-145.14;100.00;70583.66;4976281;28;20619;-69
2022/02/26 07:09:56;;;;;;;12.80;3.03;;;;;;;-145.14;100.00;70583.66;4972600;28;20472;-70
2022/02/26 07:12:22;;;;;;;20.40;3.50;;;;;;;-145.14;100.00;70583.66;4969092;28;20209;-69
2022/02/26 07:14:47;;;;;;;14.43;2.97;;;;;;;-145.14;100.00;70583.66;4976215;28;20788;-70
2022/02/26 07:17:15;;;;;;;12.15;3.05;;;;;;;-145.14;100.00;70583.66;4970688;28;20213;-70
2022/02/26 07:19:40;;;;;;;12.50;2.63;;;;;;;-145.14;100.00;70583.66;4969372;28;20603;-70
2022/02/26 07:22:06;;;;;;;15.23;3.90;;;;;;;-145.14;100.00;70583.66;4969227;28;20557;-70
2022/02/26 07:24:31;;;;;;;15.13;3.00;;;;;;;-145.14;100.00;70583.66;4981544;28;20189;-70
2022/02/26 07:26:57;;;;;;;13.37;2.83;;;;;;;-145.14;100.00;70583.66;4964625;28;20180;-70
2022/02/26 07:29:22;;;;;;;12.97;2.70;;;;;;;-145.14;100.00;70583.66;4974040;28;20213;-70
2022/02/26 07:31:47;;;;;;;13.67;3.07;;;;;;;-145.14;100.00;70583.66;4972931;28;20234;-70
2022/02/26 07:34:13;;;;;;;16.57;3.07;;;;;;;-145.14;100.00;70583.66;4975521;28;20267;-70
2022/02/26 07:36:38;;;;;;;10.03;2.43;;;;;;;-145.14;100.00;70583.66;4978040;28;20228;-70
2022/02/26 07:39:05;;;;;;;12.20;2.90;;;;;;;-145.14;100.00;70583.66;4971865;28;20708;-71
2022/02/26 07:41:31;;;;;;;13.50;3.87;;;;;;;-145.14;100.00;70583.66;4965886;28;20196;-70
2022/02/26 07:43:56;;;;;;;11.93;3.97;;;;;;;-145.14;100.00;70583.66;4966484;28;20445;-71
2022/02/26 07:46:23;;;;;;;11.20;2.90;;;;;;;-145.14;100.00;70583.66;4972572;28;20186;-71
2022/02/26 07:48:49;;;;;;;26.10;3.40;;;;;;;-145.14;100.00;70583.66;4975309;28;20908;-71
2022/02/26 07:51:14;;;;;;;15.10;3.75;;;;;;;-145.14;100.00;70583.66;4975329;28;20475;-71
2022/02/26 07:53:40;;;;;;;18.05;3.20;;;;;;;-145.14;100.00;70583.66;4966213;28;20215;-71
2022/02/26 07:56:06;;;;;;;13.10;3.20;;;;;;;-145.14;100.00;70583.66;4974756;28;20193;-70
2022/02/26 07:58:32;;;;;;;14.00;3.10;;;;;;;-145.14;100.00;70583.66;4973781;28;20436;-70
2022/02/26 08:00:57;;;;;;;10.70;2.60;;;;;;;-145.14;100.00;70583.66;4974410;28;20190;-69
2022/02/26 08:03:23;;;;;;;18.00;3.20;;;;;;;-145.14;100.00;70583.66;4973084;28;20230;-69
2022/02/26 08:05:48;;;;;;;14.57;3.37;;;;;;;-145.14;100.00;70583.66;4961796;28;20247;-72
2022/02/26 08:08:14;;;;;;;9.47;2.57;;;;;;;-145.14;100.00;70583.66;4966514;28;20685;-70
2022/02/26 08:10:39;;;;;;;11.97;2.20;;;;;;;-145.14;100.00;70583.66;4967073;28;20221;-71
2022/02/26 08:13:05;;;;;;;11.23;3.23;;;;;;;-145.14;100.00;70583.66;4972640;28;20213;-70
2022/02/26 08:15:30;;;;;;;12.80;2.50;;;;;;;-145.14;100.00;70583.66;4971384;28;20288;-71
2022/02/26 08:17:57;;;;;;;14.80;2.93;;;;;;;-145.14;100.00;70583.66;4964376;28;20293;-70
2022/02/26 08:20:25;;;;;;;10.53;3.43;;;;;;;-145.14;100.00;70583.66;4969387;28;20216;-71
2022/02/26 08:22:53;;;;;;;13.80;2.27;;;;;;;-145.14;100.00;70583.66;4970081;28;20474;-71
2022/02/26 08:25:19;;;;;;;15.45;3.50;;;;;;;-145.14;100.00;70583.66;4966552;28;21186;-70
2022/02/26 08:27:45;;;;;;;13.60;2.90;;;;;;;-145.14;100.00;70583.66;4973161;28;20481;-70
2022/02/26 08:30:15;;;;;;;13.23;3.00;;;;;;;-145.14;100.00;70583.66;4962762;28;20468;-70
2022/02/26 08:32:50;;;;;;;9.47;2.37;;;;;;;-145.14;100.00;70583.66;4967231;28;20612;-70
2022/02/26 08:35:16;;;;;;;11.50;2.63;;;;;;;-145.14;100.00;70583.66;4971341;28;20432;-69
2022/02/26 08:37:43;;;;;;;16.53;3.67;;;;;;;-145.14;100.00;70583.66;4967676;28;20492;-70
2022/02/26 08:40:09;;;;;;;13.60;3.20;;;;;;;-145.14;100.00;70583.66;4983949;23;20234;-68
2022/02/26 08:42:36;;;;;;;9.30;2.73;;;;;;;-145.14;100.00;70583.66;4968991;28;20571;-68
2022/02/26 08:45:04;;;;;;;8.20;2.30;;;;;;;-145.14;100.00;70583.66;4970549;28;20499;-70
2022/02/26 08:47:30;;;;;;;12.30;2.60;;;;;;;-145.14;100.00;70583.66;4969040;28;20490;-68
2022/02/26 08:49:57;;;;;;;14.60;3.37;;;;;;;-145.14;100.00;70583.66;4965944;28;20487;-69
2022/02/26 08:52:23;;;;;;;19.43;2.83;;;;;;;-145.14;100.00;70583.66;4973499;28;20488;-68
2022/02/26 08:54:49;;;;;;;13.60;2.50;;;;;;;-145.14;100.00;70583.66;4968613;28;20531;-70
2022/02/26 08:57:14;;;;;;;12.57;2.40;;;;;;;-145.14;100.00;70583.66;4969925;28;20444;-69
2022/02/26 08:59:40;;;;;;;12.80;2.70;;;;;;;-145.14;100.00;70583.66;4968327;28;20222;-68
2022/02/26 09:02:05;;;;;;;19.70;2.47;;;;;;;-145.14;100.00;70583.66;4972445;28;20185;-69
2022/02/26 09:04:31;;;;;;;19.73;3.10;;;;;;;-145.14;100.00;70583.66;4975447;28;20186;-69
2022/02/26 09:06:57;;;;;;;17.10;2.90;;;;;;;-145.14;100.00;70583.66;4971192;28;20190;-68
2022/02/26 09:09:22;;;;;;;11.23;2.70;;;;;;;-145.14;100.00;70583.66;4972962;28;20682;-67
2022/02/26 09:11:48;;;;;;;14.07;2.40;;;;;;;-145.14;100.00;70583.66;4974297;28;20197;-69
2022/02/26 09:14:14;;;;;;;9.63;2.57;;;;;;;-145.14;100.00;70583.66;4976033;28;20205;-69
2022/02/26 09:16:48;;;;;;;19.63;2.90;;;;;;;-145.14;100.00;70583.66;4975479;28;20713;-68
2022/02/26 09:19:14;;;;;;;9.37;2.17;;;;;;;-145.14;100.00;70583.66;4974411;28;20433;-68
2022/02/26 09:21:39;;;;;;;18.03;3.00;;;;;;;-145.14;100.00;70583.66;4974148;28;20511;-69
2022/02/26 09:24:05;;;;;;;11.40;2.70;;;;;;;-145.14;100.00;70583.66;4977609;28;20198;-68
2022/02/26 09:26:31;;;;;;;9.67;2.43;;;;;;;-145.14;100.00;70583.66;4976180;28;20189;-68
2022/02/26 09:28:57;;;;;;;13.23;2.50;;;;;;;-145.14;100.00;70583.66;4976074;28;20731;-68
2022/02/26 09:31:23;;;;;;;18.60;2.00;;;;;;;-145.14;100.00;70583.66;4977443;28;20226;-69
2022/02/26 09:33:48;;;;;;;13.90;3.07;;;;;;;-145.14;100.00;70583.66;4982532;28;20425;-68
2022/02/26 09:36:14;;;;;;;8.07;1.73;;;;;;;-145.14;100.00;70583.66;4979524;28;20452;-69
2022/02/26 09:38:41;;;;;;;12.10;2.77;;;;;;;-145.14;100.00;70583.66;4977004;28;20328;-69
2022/02/26 09:41:08;;;;;;;8.03;2.13;;;;;;;-145.14;100.00;70583.66;4979229;28;20257;-69
2022/02/26 09:43:34;;;;;;;10.90;1.80;;;;;;;-145.14;100.00;70583.66;4979460;28;20443;-68
2022/02/26 09:46:03;;;;;;;14.03;2.30;;;;;;;-145.14;100.00;70583.66;4980911;28;20520;-69
2022/02/26 09:48:29;;;;;;;10.20;2.30;;;;;;;-145.14;100.00;70583.66;4978925;28;20182;-69
2022/02/26 09:50:55;;;;;;;20.60;3.00;;;;;;;-145.14;100.00;70583.66;4980803;28;20952;-69
2022/02/26 09:53:22;;;;;;;22.77;2.90;;;;;;;-145.14;100.00;70583.66;4979831;28;20967;-69
2022/02/26 09:55:49;;;;;;;14.83;2.67;;;;;;;-145.14;100.00;70583.66;4977329;28;20862;-68
2022/02/26 09:58:15;;;;;;;11.80;2.20;;;;;;;-145.14;100.00;70583.66;4983081;28;20452;-69
2022/02/26 10:00:42;;;;;;;11.13;3.00;;;;;;;-145.14;100.00;70583.66;4979262;28;20476;-69
2022/02/26 10:03:27;;;;;;;14.30;3.33;;;;;;;-145.14;100.00;70583.66;4981965;28;20194;-69
2022/02/26 10:06:04;;;;;;;14.80;2.90;;;;;;;-145.14;100.00;70583.66;4981226;28;20861;-69
2022/02/26 10:08:57;;;;;;;9.17;2.30;;;;;;;-145.14;100.00;70583.66;4981229;28;21267;-69
2022/02/26 10:11:33;;;;;;;8.17;1.80;;;;;;;-145.14;100.00;70583.66;4980877;28;21071;-69
2022/02/26 10:14:05;;;;;;;16.77;3.27;;;;;;;-145.14;100.00;70583.66;4980824;28;20432;-68
2022/02/26 10:16:46;;;;;;;12.90;2.50;;;;;;;-145.14;100.00;70583.66;4979077;28;20530;-69
2022/02/26 10:19:29;;;;;;;11.60;1.70;;;;;;;-145.14;100.00;70583.66;4995800;28;20460;-68
2022/02/26 10:21:59;;;;;;;13.43;1.97;;;;;;;-145.14;100.00;70583.66;4980656;28;20428;-69
2022/02/26 10:24:27;;;;;;;12.90;2.03;;;;;;;-145.14;100.00;70583.66;4979614;28;20507;-69
2022/02/26 10:26:55;;;;;;;9.47;1.93;;;;;;;-145.14;100.00;70583.66;4980225;28;20425;-68
2022/02/26 10:29:23;;;;;;;11.63;2.10;;;;;;;-145.14;100.00;70583.66;4979434;28;20457;-69
2022/02/26 10:31:50;;;;;;;9.60;1.73;;;;;;;-145.14;100.00;70583.66;4972382;28;20997;-67
2022/02/26 10:34:35;;;;;;;10.60;2.50;;;;;;;-145.14;100.00;70583.66;4971881;28;20339;-68
2022/02/26 10:37:04;;;;;;;14.70;2.60;;;;;;;-145.14;100.00;70583.66;4972560;28;20521;-67
2022/02/26 10:39:41;;;;;;;14.37;2.70;;;;;;;-145.14;100.00;70583.66;4966581;28;20554;-68
2022/02/26 10:42:09;;;;;;;13.53;2.30;;;;;;;-145.14;100.00;70583.66;4977726;28;20448;-68
2022/02/26 10:44:36;;;;;;;9.70;2.30;;;;;;;-145.14;100.00;70583.66;4977778;28;20437;-68
2022/02/26 10:47:15;;;;;;;10.90;2.33;;;;;;;-145.14;100.00;70583.66;4972233;28;20755;-69
2022/02/26 10:49:46;;;;;;;14.30;2.77;;;;;;;-145.14;100.00;70583.66;4973996;28;21027;-68
2022/02/26 10:52:14;;;;;;;13.57;1.97;;;;;;;-145.14;100.00;70583.66;4977365;28;20929;-68
2022/02/26 10:54:43;;;;;;;4.90;1.80;;;;;;;-145.14;100.00;70583.66;4972020;28;20433;-69
2022/02/26 10:57:11;;;;;;;12.50;2.37;;;;;;;-145.14;100.00;70583.66;4977810;28;20438;-69
2022/02/26 10:59:41;;;;;;;11.57;2.83;;;;;;;-145.14;100.00;70583.66;4976774;28;20495;-67